sensor_id;sensor_type;location;lat;lon;timestamp;P1;durP1;ratioP1;P2;durP2;ratioP2
35959;SDS011;22043;50.970;7.192;2022-10-22T00:01:13;11.40;;;3.58;;
35959;SDS011;22043;50.970;7.192;2022-10-22T00:03:39;7.05;;;4.30;;
35959;SDS011;22043;50.970;7.192;2022-10-22T00:06:05;8.05;;;4.05;;
35959;SDS011;22043;50.970;7.192;2022-10-22T00:08:31;8.50;;;3.40;;
35959;SDS011;22043;50.970;7.192;2022-10-22T00:10:57;6.72;;;3.85;;
35959;SDS011;22043;50.970;7.192;2022-10-22T00:13:22;9.20;;;3.97;;
35959;SDS011;22043;50.970;7.192;2022-10-22T00:15:48;7.18;;;3.97;;
35959;SDS011;22043;50.970;7.192;2022-10-22T00:18:14;9.85;;;4.70;;
35959;SDS011;22043;50.970;7.192;2022-10-22T00:20:40;7.85;;;3.15;;
35959;SDS011;22043;50.970;7.192;2022-10-22T00:23:05;9.05;;;3.85;;
35959;SDS011;22043;50.970;7.192;2022-10-22T00:25:33;11.43;;;4.00;;
35959;SDS011;22043;50.970;7.192;2022-10-22T00:28:00;9.73;;;4.22;;
35959;SDS011;22043;50.970;7.192;2022-10-22T00:30:26;7.50;;;4.30;;
35959;SDS011;22043;50.970;7.192;2022-10-22T00:32:51;9.50;;;4.00;;
35959;SDS011;22043;50.970;7.192;2022-10-22T00:35:17;12.52;;;4.50;;
35959;SDS011;22043;50.970;7.192;2022-10-22T00:37:43;12.55;;;4.55;;
35959;SDS011;22043;50.970;7.192;2022-10-22T00:40:09;9.10;;;3.88;;
35959;SDS011;22043;50.970;7.192;2022-10-22T00:42:35;9.73;;;4.03;;
35959;SDS011;22043;50.970;7.192;2022-10-22T00:50:21;11.98;;;4.40;;
35959;SDS011;22043;50.970;7.192;2022-10-22T00:53:12;7.97;;;4.13;;
35959;SDS011;22043;50.970;7.192;2022-10-22T00:55:51;6.82;;;4.43;;
35959;SDS011;22043;50.970;7.192;2022-10-22T00:58:18;12.02;;;4.45;;
35959;SDS011;22043;50.970;7.192;2022-10-22T01:00:48;10.98;;;4.55;;
35959;SDS011;22043;50.970;7.192;2022-10-22T01:03:14;9.07;;;4.25;;
35959;SDS011;22043;50.970;7.192;2022-10-22T01:05:41;7.75;;;3.72;;
35959;SDS011;22043;50.970;7.192;2022-10-22T01:08:37;10.52;;;4.45;;
35959;SDS011;22043;50.970;7.192;2022-10-22T01:14:03;18.73;;;4.88;;
35959;SDS011;22043;50.970;7.192;2022-10-22T01:16:37;10.93;;;4.40;;
35959;SDS011;22043;50.970;7.192;2022-10-22T01:25:16;10.52;;;4.28;;
35959;SDS011;22043;50.970;7.192;2022-10-22T01:30:52;11.15;;;5.90;;
35959;SDS011;22043;50.970;7.192;2022-10-22T01:33:20;8.13;;;4.95;;
35959;SDS011;22043;50.970;7.192;2022-10-22T01:35:48;9.35;;;3.55;;
35959;SDS011;22043;50.970;7.192;2022-10-22T01:38:16;7.82;;;3.83;;
35959;SDS011;22043;50.970;7.192;2022-10-22T01:40:44;9.95;;;3.78;;
35959;SDS011;22043;50.970;7.192;2022-10-22T01:43:11;8.10;;;4.03;;
35959;SDS011;22043;50.970;7.192;2022-10-22T01:45:46;9.73;;;4.35;;
35959;SDS011;22043;50.970;7.192;2022-10-22T01:51:05;10.25;;;4.00;;
35959;SDS011;22043;50.970;7.192;2022-10-22T01:59:06;7.65;;;4.43;;
35959;SDS011;22043;50.970;7.192;2022-10-22T02:06:38;8.77;;;4.05;;
35959;SDS011;22043;50.970;7.192;2022-10-22T02:09:07;8.23;;;4.30;;
35959;SDS011;22043;50.970;7.192;2022-10-22T02:11:35;10.40;;;4.38;;
35959;SDS011;22043;50.970;7.192;2022-10-22T02:14:02;7.93;;;4.40;;
35959;SDS011;22043;50.970;7.192;2022-10-22T02:16:35;7.03;;;3.83;;
35959;SDS011;22043;50.970;7.192;2022-10-22T02:21:53;12.85;;;5.07;;
35959;SDS011;22043;50.970;7.192;2022-10-22T02:24:19;8.45;;;4.30;;
35959;SDS011;22043;50.970;7.192;2022-10-22T02:29:25;10.32;;;5.30;;
35959;SDS011;22043;50.970;7.192;2022-10-22T02:31:54;10.90;;;5.67;;
35959;SDS011;22043;50.970;7.192;2022-10-22T02:34:23;11.38;;;5.68;;
35959;SDS011;22043;50.970;7.192;2022-10-22T02:36:51;13.55;;;7.00;;
35959;SDS011;22043;50.970;7.192;2022-10-22T02:39:18;11.13;;;6.60;;
35959;SDS011;22043;50.970;7.192;2022-10-22T02:41:45;10.95;;;5.05;;
35959;SDS011;22043;50.970;7.192;2022-10-22T02:44:12;7.05;;;4.50;;
35959;SDS011;22043;50.970;7.192;2022-10-22T02:46:38;10.98;;;4.55;;
35959;SDS011;22043;50.970;7.192;2022-10-22T02:49:04;6.63;;;4.30;;
35959;SDS011;22043;50.970;7.192;2022-10-22T02:51:30;8.63;;;4.18;;
35959;SDS011;22043;50.970;7.192;2022-10-22T02:53:55;9.13;;;4.72;;
35959;SDS011;22043;50.970;7.192;2022-10-22T02:56:21;10.70;;;5.38;;
35959;SDS011;22043;50.970;7.192;2022-10-22T02:58:47;9.50;;;4.53;;
35959;SDS011;22043;50.970;7.192;2022-10-22T03:01:12;9.55;;;4.80;;
35959;SDS011;22043;50.970;7.192;2022-10-22T03:03:38;12.50;;;5.35;;
35959;SDS011;22043;50.970;7.192;2022-10-22T03:06:04;8.93;;;4.30;;
35959;SDS011;22043;50.970;7.192;2022-10-22T03:08:30;10.90;;;4.82;;
35959;SDS011;22043;50.970;7.192;2022-10-22T03:10:55;7.15;;;4.78;;
35959;SDS011;22043;50.970;7.192;2022-10-22T03:13:21;11.95;;;4.47;;
35959;SDS011;22043;50.970;7.192;2022-10-22T03:15:47;10.60;;;4.43;;
35959;SDS011;22043;50.970;7.192;2022-10-22T03:18:14;9.10;;;4.15;;
35959;SDS011;22043;50.970;7.192;2022-10-22T03:20:40;9.15;;;4.50;;
35959;SDS011;22043;50.970;7.192;2022-10-22T03:23:05;6.78;;;4.03;;
35959;SDS011;22043;50.970;7.192;2022-10-22T03:25:31;13.25;;;4.38;;
35959;SDS011;22043;50.970;7.192;2022-10-22T03:28:00;11.98;;;5.57;;
35959;SDS011;22043;50.970;7.192;2022-10-22T03:30:29;11.38;;;4.53;;
35959;SDS011;22043;50.970;7.192;2022-10-22T03:32:55;8.07;;;4.90;;
35959;SDS011;22043;50.970;7.192;2022-10-22T03:35:21;7.65;;;4.13;;
35959;SDS011;22043;50.970;7.192;2022-10-22T03:37:47;10.02;;;5.18;;
35959;SDS011;22043;50.970;7.192;2022-10-22T03:40:13;11.20;;;4.80;;
35959;SDS011;22043;50.970;7.192;2022-10-22T03:42:39;10.20;;;4.45;;
35959;SDS011;22043;50.970;7.192;2022-10-22T03:45:06;8.07;;;4.67;;
35959;SDS011;22043;50.970;7.192;2022-10-22T03:47:32;8.85;;;4.35;;
35959;SDS011;22043;50.970;7.192;2022-10-22T03:49:58;8.52;;;4.45;;
35959;SDS011;22043;50.970;7.192;2022-10-22T03:52:24;8.05;;;4.82;;
35959;SDS011;22043;50.970;7.192;2022-10-22T03:54:49;9.00;;;5.47;;
35959;SDS011;22043;50.970;7.192;2022-10-22T03:57:15;10.93;;;4.40;;
35959;SDS011;22043;50.970;7.192;2022-10-22T03:59:42;7.40;;;4.85;;
35959;SDS011;22043;50.970;7.192;2022-10-22T04:02:08;11.07;;;4.50;;
35959;SDS011;22043;50.970;7.192;2022-10-22T04:04:35;10.88;;;4.53;;
35959;SDS011;22043;50.970;7.192;2022-10-22T04:07:01;8.25;;;4.32;;
35959;SDS011;22043;50.970;7.192;2022-10-22T04:09:29;8.15;;;5.20;;
35959;SDS011;22043;50.970;7.192;2022-10-22T04:11:56;8.55;;;5.40;;
35959;SDS011;22043;50.970;7.192;2022-10-22T04:14:22;9.88;;;5.63;;
35959;SDS011;22043;50.970;7.192;2022-10-22T04:16:48;10.02;;;5.80;;
35959;SDS011;22043;50.970;7.192;2022-10-22T04:19:14;9.30;;;5.45;;
35959;SDS011;22043;50.970;7.192;2022-10-22T04:21:39;10.70;;;5.15;;
35959;SDS011;22043;50.970;7.192;2022-10-22T04:24:05;13.52;;;5.95;;
35959;SDS011;22043;50.970;7.192;2022-10-22T04:26:31;13.98;;;6.00;;
35959;SDS011;22043;50.970;7.192;2022-10-22T04:28:56;10.05;;;4.82;;
35959;SDS011;22043;50.970;7.192;2022-10-22T04:31:23;10.48;;;5.00;;
35959;SDS011;22043;50.970;7.192;2022-10-22T04:33:56;9.63;;;5.38;;
35959;SDS011;22043;50.970;7.192;2022-10-22T04:36:23;8.90;;;4.88;;
35959;SDS011;22043;50.970;7.192;2022-10-22T04:38:53;11.52;;;5.07;;
35959;SDS011;22043;50.970;7.192;2022-10-22T04:41:21;9.63;;;4.72;;
35959;SDS011;22043;50.970;7.192;2022-10-22T04:43:48;7.70;;;4.72;;
35959;SDS011;22043;50.970;7.192;2022-10-22T04:46:15;9.63;;;4.80;;
35959;SDS011;22043;50.970;7.192;2022-10-22T04:48:42;9.32;;;5.88;;
35959;SDS011;22043;50.970;7.192;2022-10-22T04:51:10;8.27;;;5.13;;
35959;SDS011;22043;50.970;7.192;2022-10-22T04:53:37;8.45;;;4.80;;
35959;SDS011;22043;50.970;7.192;2022-10-22T04:56:10;9.82;;;4.75;;
35959;SDS011;22043;50.970;7.192;2022-10-22T04:58:40;10.60;;;6.00;;
35959;SDS011;22043;50.970;7.192;2022-10-22T05:01:10;10.63;;;5.57;;
35959;SDS011;22043;50.970;7.192;2022-10-22T05:03:38;8.30;;;5.40;;
35959;SDS011;22043;50.970;7.192;2022-10-22T05:06:04;10.15;;;5.25;;
35959;SDS011;22043;50.970;7.192;2022-10-22T05:08:30;8.85;;;5.18;;
35959;SDS011;22043;50.970;7.192;2022-10-22T05:10:56;11.80;;;5.65;;
35959;SDS011;22043;50.970;7.192;2022-10-22T05:13:22;11.30;;;5.43;;
35959;SDS011;22043;50.970;7.192;2022-10-22T05:15:47;11.80;;;6.70;;
35959;SDS011;22043;50.970;7.192;2022-10-22T05:18:13;12.00;;;6.38;;
35959;SDS011;22043;50.970;7.192;2022-10-22T05:20:39;9.80;;;6.15;;
35959;SDS011;22043;50.970;7.192;2022-10-22T05:23:06;8.07;;;5.07;;
35959;SDS011;22043;50.970;7.192;2022-10-22T05:25:35;9.43;;;5.40;;
35959;SDS011;22043;50.970;7.192;2022-10-22T05:28:04;11.57;;;5.22;;
35959;SDS011;22043;50.970;7.192;2022-10-22T05:30:30;9.55;;;5.05;;
35959;SDS011;22043;50.970;7.192;2022-10-22T05:32:55;7.63;;;5.40;;
35959;SDS011;22043;50.970;7.192;2022-10-22T05:35:21;12.63;;;4.97;;
35959;SDS011;22043;50.970;7.192;2022-10-22T05:37:47;13.95;;;5.20;;
35959;SDS011;22043;50.970;7.192;2022-10-22T05:40:12;9.55;;;4.57;;
35959;SDS011;22043;50.970;7.192;2022-10-22T05:42:38;8.70;;;5.82;;
35959;SDS011;22043;50.970;7.192;2022-10-22T05:45:04;9.77;;;5.63;;
35959;SDS011;22043;50.970;7.192;2022-10-22T05:47:30;12.55;;;5.88;;
35959;SDS011;22043;50.970;7.192;2022-10-22T05:49:56;12.30;;;4.43;;
35959;SDS011;22043;50.970;7.192;2022-10-22T05:52:22;9.50;;;5.70;;
35959;SDS011;22043;50.970;7.192;2022-10-22T05:54:48;7.72;;;4.95;;
35959;SDS011;22043;50.970;7.192;2022-10-22T05:57:14;7.80;;;4.57;;
35959;SDS011;22043;50.970;7.192;2022-10-22T05:59:39;6.85;;;4.70;;
35959;SDS011;22043;50.970;7.192;2022-10-22T06:02:05;8.50;;;4.95;;
35959;SDS011;22043;50.970;7.192;2022-10-22T06:04:32;8.15;;;4.57;;
35959;SDS011;22043;50.970;7.192;2022-10-22T06:06:58;11.40;;;5.70;;
35959;SDS011;22043;50.970;7.192;2022-10-22T06:09:28;11.82;;;5.22;;
35959;SDS011;22043;50.970;7.192;2022-10-22T06:11:57;10.32;;;5.25;;
35959;SDS011;22043;50.970;7.192;2022-10-22T06:14:23;10.80;;;4.80;;
35959;SDS011;22043;50.970;7.192;2022-10-22T06:16:50;8.38;;;4.93;;
35959;SDS011;22043;50.970;7.192;2022-10-22T06:19:16;16.67;;;4.75;;
35959;SDS011;22043;50.970;7.192;2022-10-22T06:21:43;6.82;;;4.53;;
35959;SDS011;22043;50.970;7.192;2022-10-22T06:24:10;12.65;;;4.32;;
35959;SDS011;22043;50.970;7.192;2022-10-22T06:26:36;12.25;;;4.95;;
35959;SDS011;22043;50.970;7.192;2022-10-22T06:29:02;13.00;;;5.38;;
35959;SDS011;22043;50.970;7.192;2022-10-22T06:31:28;12.82;;;4.70;;
35959;SDS011;22043;50.970;7.192;2022-10-22T06:34:01;7.95;;;4.97;;
35959;SDS011;22043;50.970;7.192;2022-10-22T06:36:28;9.30;;;5.15;;
35959;SDS011;22043;50.970;7.192;2022-10-22T06:38:54;13.10;;;5.22;;
35959;SDS011;22043;50.970;7.192;2022-10-22T06:41:20;10.52;;;5.13;;
35959;SDS011;22043;50.970;7.192;2022-10-22T06:43:47;6.93;;;4.60;;
35959;SDS011;22043;50.970;7.192;2022-10-22T06:46:14;12.30;;;4.68;;
35959;SDS011;22043;50.970;7.192;2022-10-22T06:48:41;7.63;;;5.00;;
35959;SDS011;22043;50.970;7.192;2022-10-22T06:51:12;15.60;;;5.15;;
35959;SDS011;22043;50.970;7.192;2022-10-22T06:53:39;10.18;;;4.88;;
35959;SDS011;22043;50.970;7.192;2022-10-22T06:56:05;10.70;;;5.35;;
35959;SDS011;22043;50.970;7.192;2022-10-22T06:58:32;8.70;;;4.97;;
35959;SDS011;22043;50.970;7.192;2022-10-22T07:01:02;7.85;;;5.13;;
35959;SDS011;22043;50.970;7.192;2022-10-22T07:03:29;7.80;;;4.43;;
35959;SDS011;22043;50.970;7.192;2022-10-22T07:05:57;11.88;;;4.63;;
35959;SDS011;22043;50.970;7.192;2022-10-22T07:08:23;8.75;;;4.25;;
35959;SDS011;22043;50.970;7.192;2022-10-22T07:10:49;9.73;;;4.47;;
35959;SDS011;22043;50.970;7.192;2022-10-22T07:13:15;11.25;;;4.95;;
35959;SDS011;22043;50.970;7.192;2022-10-22T07:15:40;10.77;;;4.20;;
35959;SDS011;22043;50.970;7.192;2022-10-22T07:18:06;8.98;;;4.20;;
35959;SDS011;22043;50.970;7.192;2022-10-22T07:20:31;12.88;;;4.25;;
35959;SDS011;22043;50.970;7.192;2022-10-22T07:22:57;9.30;;;3.97;;
35959;SDS011;22043;50.970;7.192;2022-10-22T07:25:23;9.00;;;3.92;;
35959;SDS011;22043;50.970;7.192;2022-10-22T07:27:48;9.25;;;4.32;;
35959;SDS011;22043;50.970;7.192;2022-10-22T07:30:14;10.82;;;3.90;;
35959;SDS011;22043;50.970;7.192;2022-10-22T07:32:39;7.03;;;3.42;;
35959;SDS011;22043;50.970;7.192;2022-10-22T07:35:05;14.88;;;3.97;;
35959;SDS011;22043;50.970;7.192;2022-10-22T07:37:31;11.68;;;4.05;;
35959;SDS011;22043;50.970;7.192;2022-10-22T07:39:56;8.45;;;3.85;;
35959;SDS011;22043;50.970;7.192;2022-10-22T07:42:22;7.28;;;3.67;;
35959;SDS011;22043;50.970;7.192;2022-10-22T07:44:48;14.32;;;4.30;;
35959;SDS011;22043;50.970;7.192;2022-10-22T07:47:13;8.77;;;3.55;;
35959;SDS011;22043;50.970;7.192;2022-10-22T07:49:39;9.93;;;3.95;;
35959;SDS011;22043;50.970;7.192;2022-10-22T07:52:05;9.02;;;3.40;;
35959;SDS011;22043;50.970;7.192;2022-10-22T07:54:31;8.50;;;3.80;;
35959;SDS011;22043;50.970;7.192;2022-10-22T07:56:57;11.52;;;3.35;;
35959;SDS011;22043;50.970;7.192;2022-10-22T07:59:23;6.63;;;3.08;;
35959;SDS011;22043;50.970;7.192;2022-10-22T08:01:48;7.57;;;3.45;;
35959;SDS011;22043;50.970;7.192;2022-10-22T08:04:14;8.63;;;3.10;;
35959;SDS011;22043;50.970;7.192;2022-10-22T08:06:39;10.52;;;2.90;;
35959;SDS011;22043;50.970;7.192;2022-10-22T08:09:05;16.20;;;3.75;;
35959;SDS011;22043;50.970;7.192;2022-10-22T08:11:31;10.63;;;3.08;;
35959;SDS011;22043;50.970;7.192;2022-10-22T08:13:57;9.00;;;2.85;;
35959;SDS011;22043;50.970;7.192;2022-10-22T08:16:24;7.55;;;2.55;;
35959;SDS011;22043;50.970;7.192;2022-10-22T08:18:49;11.38;;;2.92;;
35959;SDS011;22043;50.970;7.192;2022-10-22T08:21:15;8.75;;;2.60;;
35959;SDS011;22043;50.970;7.192;2022-10-22T08:23:41;6.35;;;2.38;;
35959;SDS011;22043;50.970;7.192;2022-10-22T08:26:08;9.25;;;2.97;;
35959;SDS011;22043;50.970;7.192;2022-10-22T08:28:34;6.10;;;2.63;;
35959;SDS011;22043;50.970;7.192;2022-10-22T08:31:03;6.80;;;2.70;;
35959;SDS011;22043;50.970;7.192;2022-10-22T08:33:32;9.07;;;2.95;;
35959;SDS011;22043;50.970;7.192;2022-10-22T08:35:58;11.85;;;2.30;;
35959;SDS011;22043;50.970;7.192;2022-10-22T08:38:24;7.28;;;2.53;;
35959;SDS011;22043;50.970;7.192;2022-10-22T08:40:51;8.20;;;2.53;;
35959;SDS011;22043;50.970;7.192;2022-10-22T08:49:20;6.50;;;2.72;;
35959;SDS011;22043;50.970;7.192;2022-10-22T08:51:50;7.75;;;2.50;;
35959;SDS011;22043;50.970;7.192;2022-10-22T08:59:46;9.20;;;2.22;;
35959;SDS011;22043;50.970;7.192;2022-10-22T09:02:21;8.25;;;2.80;;
35959;SDS011;22043;50.970;7.192;2022-10-22T09:04:59;8.93;;;2.88;;
35959;SDS011;22043;50.970;7.192;2022-10-22T09:07:39;5.43;;;2.50;;
35959;SDS011;22043;50.970;7.192;2022-10-22T09:10:12;9.48;;;2.58;;
35959;SDS011;22043;50.970;7.192;2022-10-22T09:12:38;5.70;;;2.30;;
35959;SDS011;22043;50.970;7.192;2022-10-22T09:15:04;8.38;;;2.40;;
35959;SDS011;22043;50.970;7.192;2022-10-22T09:17:33;5.45;;;2.05;;
35959;SDS011;22043;50.970;7.192;2022-10-22T09:22:59;9.85;;;2.63;;
35959;SDS011;22043;50.970;7.192;2022-10-22T09:25:26;9.70;;;2.40;;
35959;SDS011;22043;50.970;7.192;2022-10-22T09:27:53;6.75;;;2.92;;
35959;SDS011;22043;50.970;7.192;2022-10-22T09:30:29;8.43;;;2.30;;
35959;SDS011;22043;50.970;7.192;2022-10-22T09:33:14;3.92;;;2.13;;
35959;SDS011;22043;50.970;7.192;2022-10-22T09:38:12;14.57;;;2.15;;
35959;SDS011;22043;50.970;7.192;2022-10-22T09:40:43;8.90;;;2.00;;
35959;SDS011;22043;50.970;7.192;2022-10-22T09:43:14;7.93;;;1.83;;
35959;SDS011;22043;50.970;7.192;2022-10-22T09:45:40;9.38;;;2.45;;
35959;SDS011;22043;50.970;7.192;2022-10-22T09:48:17;6.05;;;2.15;;
35959;SDS011;22043;50.970;7.192;2022-10-22T09:50:54;6.20;;;1.77;;
35959;SDS011;22043;50.970;7.192;2022-10-22T09:53:28;4.50;;;2.10;;
35959;SDS011;22043;50.970;7.192;2022-10-22T09:55:55;8.00;;;1.75;;
35959;SDS011;22043;50.970;7.192;2022-10-22T09:58:23;7.03;;;1.73;;
35959;SDS011;22043;50.970;7.192;2022-10-22T10:00:59;6.80;;;1.67;;
35959;SDS011;22043;50.970;7.192;2022-10-22T10:03:27;8.60;;;1.85;;
35959;SDS011;22043;50.970;7.192;2022-10-22T10:05:57;5.57;;;2.20;;
35959;SDS011;22043;50.970;7.192;2022-10-22T10:08:24;7.00;;;1.77;;
35959;SDS011;22043;50.970;7.192;2022-10-22T10:10:55;9.95;;;2.25;;
35959;SDS011;22043;50.970;7.192;2022-10-22T10:13:33;13.63;;;1.80;;
35959;SDS011;22043;50.970;7.192;2022-10-22T10:21:53;9.35;;;2.35;;
35959;SDS011;22043;50.970;7.192;2022-10-22T10:27:27;4.90;;;1.67;;
35959;SDS011;22043;50.970;7.192;2022-10-22T10:30:01;8.85;;;1.48;;
35959;SDS011;22043;50.970;7.192;2022-10-22T10:32:47;7.15;;;1.90;;
35959;SDS011;22043;50.970;7.192;2022-10-22T10:35:40;8.13;;;2.15;;
35959;SDS011;22043;50.970;7.192;2022-10-22T10:40:44;8.18;;;1.70;;
35959;SDS011;22043;50.970;7.192;2022-10-22T10:43:35;4.88;;;1.38;;
35959;SDS011;22043;50.970;7.192;2022-10-22T10:51:31;6.72;;;1.30;;
35959;SDS011;22043;50.970;7.192;2022-10-22T11:02:01;7.50;;;1.70;;
35959;SDS011;22043;50.970;7.192;2022-10-22T11:07:38;9.50;;;1.98;;
35959;SDS011;22043;50.970;7.192;2022-10-22T11:10:18;3.83;;;1.20;;
35959;SDS011;22043;50.970;7.192;2022-10-22T11:12:50;5.05;;;1.70;;
35959;SDS011;22043;50.970;7.192;2022-10-22T11:18:02;9.48;;;1.95;;
35959;SDS011;22043;50.970;7.192;2022-10-22T11:20:56;6.25;;;1.35;;
35959;SDS011;22043;50.970;7.192;2022-10-22T11:26:06;9.05;;;1.40;;
35959;SDS011;22043;50.970;7.192;2022-10-22T11:28:47;4.40;;;1.60;;
35959;SDS011;22043;50.970;7.192;2022-10-22T11:31:16;3.50;;;1.00;;
35959;SDS011;22043;50.970;7.192;2022-10-22T11:36:39;5.50;;;1.03;;
35959;SDS011;22043;50.970;7.192;2022-10-22T11:39:06;7.03;;;1.70;;
35959;SDS011;22043;50.970;7.192;2022-10-22T11:41:56;7.15;;;2.15;;
35959;SDS011;22043;50.970;7.192;2022-10-22T11:44:23;4.13;;;1.10;;
35959;SDS011;22043;50.970;7.192;2022-10-22T11:47:14;4.88;;;1.02;;
35959;SDS011;22043;50.970;7.192;2022-10-22T11:49:44;7.97;;;1.25;;
35959;SDS011;22043;50.970;7.192;2022-10-22T11:52:24;2.70;;;1.02;;
35959;SDS011;22043;50.970;7.192;2022-10-22T11:55:01;8.70;;;1.58;;
35959;SDS011;22043;50.970;7.192;2022-10-22T11:57:47;10.25;;;1.40;;
35959;SDS011;22043;50.970;7.192;2022-10-22T12:08:41;5.85;;;1.40;;
35959;SDS011;22043;50.970;7.192;2022-10-22T12:16:23;5.63;;;1.50;;
35959;SDS011;22043;50.970;7.192;2022-10-22T12:18:54;7.40;;;1.38;;
35959;SDS011;22043;50.970;7.192;2022-10-22T12:21:24;6.13;;;0.98;;
35959;SDS011;22043;50.970;7.192;2022-10-22T12:23:50;6.68;;;0.90;;
35959;SDS011;22043;50.970;7.192;2022-10-22T12:26:21;6.00;;;1.05;;
35959;SDS011;22043;50.970;7.192;2022-10-22T12:28:55;6.57;;;1.40;;
35959;SDS011;22043;50.970;7.192;2022-10-22T12:31:22;9.40;;;1.00;;
35959;SDS011;22043;50.970;7.192;2022-10-22T12:33:54;6.28;;;0.80;;
35959;SDS011;22043;50.970;7.192;2022-10-22T12:36:20;5.50;;;1.08;;
35959;SDS011;22043;50.970;7.192;2022-10-22T12:38:46;5.50;;;1.10;;
35959;SDS011;22043;50.970;7.192;2022-10-22T12:41:12;6.22;;;1.27;;
35959;SDS011;22043;50.970;7.192;2022-10-22T12:43:38;6.60;;;1.17;;
35959;SDS011;22043;50.970;7.192;2022-10-22T12:46:03;6.60;;;1.25;;
35959;SDS011;22043;50.970;7.192;2022-10-22T12:48:37;4.63;;;1.00;;
35959;SDS011;22043;50.970;7.192;2022-10-22T12:51:06;4.63;;;0.80;;
35959;SDS011;22043;50.970;7.192;2022-10-22T12:53:34;2.38;;;0.85;;
35959;SDS011;22043;50.970;7.192;2022-10-22T12:56:19;5.47;;;1.23;;
35959;SDS011;22043;50.970;7.192;2022-10-22T12:59:29;5.40;;;1.17;;
35959;SDS011;22043;50.970;7.192;2022-10-22T13:01:42;7.68;;;0.80;;
35959;SDS011;22043;50.970;7.192;2022-10-22T13:06:41;5.43;;;0.85;;
35959;SDS011;22043;50.970;7.192;2022-10-22T13:09:17;4.80;;;1.13;;
35959;SDS011;22043;50.970;7.192;2022-10-22T13:17:01;10.23;;;1.13;;
35959;SDS011;22043;50.970;7.192;2022-10-22T13:25:20;6.47;;;0.63;;
35959;SDS011;22043;50.970;7.192;2022-10-22T13:27:55;5.75;;;0.70;;
35959;SDS011;22043;50.970;7.192;2022-10-22T13:30:33;4.38;;;0.95;;
35959;SDS011;22043;50.970;7.192;2022-10-22T13:33:34;3.97;;;0.70;;
35959;SDS011;22043;50.970;7.192;2022-10-22T13:35:58;6.05;;;0.98;;
35959;SDS011;22043;50.970;7.192;2022-10-22T13:38:25;3.95;;;0.90;;
35959;SDS011;22043;50.970;7.192;2022-10-22T13:40:52;8.43;;;1.17;;
35959;SDS011;22043;50.970;7.192;2022-10-22T13:43:19;3.33;;;0.88;;
35959;SDS011;22043;50.970;7.192;2022-10-22T13:45:45;3.85;;;0.90;;
35959;SDS011;22043;50.970;7.192;2022-10-22T13:48:15;4.45;;;0.85;;
35959;SDS011;22043;50.970;7.192;2022-10-22T13:50:43;4.53;;;0.70;;
35959;SDS011;22043;50.970;7.192;2022-10-22T13:53:09;6.35;;;0.90;;
35959;SDS011;22043;50.970;7.192;2022-10-22T13:55:43;4.82;;;1.08;;
35959;SDS011;22043;50.970;7.192;2022-10-22T13:58:10;5.38;;;0.90;;
35959;SDS011;22043;50.970;7.192;2022-10-22T14:00:37;5.78;;;0.98;;
35959;SDS011;22043;50.970;7.192;2022-10-22T14:03:07;3.17;;;0.65;;
35959;SDS011;22043;50.970;7.192;2022-10-22T14:05:39;6.57;;;1.15;;
35959;SDS011;22043;50.970;7.192;2022-10-22T14:08:08;4.10;;;1.30;;
35959;SDS011;22043;50.970;7.192;2022-10-22T14:13:12;4.85;;;0.77;;
35959;SDS011;22043;50.970;7.192;2022-10-22T14:15:38;5.05;;;0.90;;
35959;SDS011;22043;50.970;7.192;2022-10-22T14:18:06;5.22;;;1.58;;
35959;SDS011;22043;50.970;7.192;2022-10-22T14:20:35;3.33;;;0.60;;
35959;SDS011;22043;50.970;7.192;2022-10-22T14:23:11;5.85;;;1.02;;
35959;SDS011;22043;50.970;7.192;2022-10-22T14:25:39;9.40;;;0.98;;
35959;SDS011;22043;50.970;7.192;2022-10-22T14:28:05;3.30;;;0.68;;
35959;SDS011;22043;50.970;7.192;2022-10-22T14:30:33;6.57;;;1.30;;
35959;SDS011;22043;50.970;7.192;2022-10-22T14:32:58;7.25;;;0.88;;
35959;SDS011;22043;50.970;7.192;2022-10-22T14:35:24;10.85;;;0.93;;
35959;SDS011;22043;50.970;7.192;2022-10-22T14:37:50;9.60;;;1.05;;
35959;SDS011;22043;50.970;7.192;2022-10-22T14:40:17;5.43;;;1.00;;
35959;SDS011;22043;50.970;7.192;2022-10-22T14:42:45;6.70;;;0.98;;
35959;SDS011;22043;50.970;7.192;2022-10-22T14:45:16;4.90;;;1.35;;
35959;SDS011;22043;50.970;7.192;2022-10-22T14:47:48;3.25;;;0.98;;
35959;SDS011;22043;50.970;7.192;2022-10-22T14:50:15;6.75;;;1.20;;
35959;SDS011;22043;50.970;7.192;2022-10-22T14:52:42;6.00;;;1.30;;
35959;SDS011;22043;50.970;7.192;2022-10-22T14:55:09;6.00;;;1.48;;
35959;SDS011;22043;50.970;7.192;2022-10-22T14:57:35;11.32;;;1.45;;
35959;SDS011;22043;50.970;7.192;2022-10-22T15:00:04;4.80;;;1.45;;
35959;SDS011;22043;50.970;7.192;2022-10-22T15:02:36;5.88;;;1.27;;
35959;SDS011;22043;50.970;7.192;2022-10-22T15:05:02;7.90;;;1.92;;
35959;SDS011;22043;50.970;7.192;2022-10-22T15:07:28;4.97;;;1.10;;
35959;SDS011;22043;50.970;7.192;2022-10-22T15:09:54;13.15;;;1.50;;
35959;SDS011;22043;50.970;7.192;2022-10-22T15:12:19;5.43;;;1.30;;
35959;SDS011;22043;50.970;7.192;2022-10-22T15:14:46;4.38;;;1.05;;
35959;SDS011;22043;50.970;7.192;2022-10-22T15:17:12;10.02;;;2.05;;
35959;SDS011;22043;50.970;7.192;2022-10-22T15:19:38;10.93;;;2.55;;
35959;SDS011;22043;50.970;7.192;2022-10-22T15:22:04;23.45;;;3.38;;
35959;SDS011;22043;50.970;7.192;2022-10-22T15:24:30;7.60;;;1.83;;
35959;SDS011;22043;50.970;7.192;2022-10-22T15:26:56;6.18;;;1.50;;
35959;SDS011;22043;50.970;7.192;2022-10-22T15:29:22;3.78;;;1.73;;
35959;SDS011;22043;50.970;7.192;2022-10-22T15:31:51;8.27;;;1.67;;
35959;SDS011;22043;50.970;7.192;2022-10-22T15:34:20;7.80;;;1.60;;
35959;SDS011;22043;50.970;7.192;2022-10-22T15:36:57;4.65;;;1.63;;
35959;SDS011;22043;50.970;7.192;2022-10-22T15:41:50;11.68;;;1.75;;
35959;SDS011;22043;50.970;7.192;2022-10-22T15:44:24;9.27;;;1.35;;
35959;SDS011;22043;50.970;7.192;2022-10-22T15:46:51;8.25;;;1.00;;
35959;SDS011;22043;50.970;7.192;2022-10-22T15:51:45;9.70;;;1.50;;
35959;SDS011;22043;50.970;7.192;2022-10-22T15:54:15;5.97;;;1.00;;
35959;SDS011;22043;50.970;7.192;2022-10-22T15:56:42;6.03;;;1.60;;
35959;SDS011;22043;50.970;7.192;2022-10-22T15:59:09;7.10;;;1.85;;
35959;SDS011;22043;50.970;7.192;2022-10-22T16:01:35;8.70;;;1.63;;
35959;SDS011;22043;50.970;7.192;2022-10-22T16:04:03;8.45;;;1.80;;
35959;SDS011;22043;50.970;7.192;2022-10-22T16:09:01;6.85;;;1.58;;
35959;SDS011;22043;50.970;7.192;2022-10-22T16:11:28;5.38;;;1.50;;
35959;SDS011;22043;50.970;7.192;2022-10-22T16:13:55;3.88;;;1.48;;
35959;SDS011;22043;50.970;7.192;2022-10-22T16:16:22;7.85;;;1.30;;
35959;SDS011;22043;50.970;7.192;2022-10-22T16:18:50;5.07;;;1.20;;
35959;SDS011;22043;50.970;7.192;2022-10-22T16:21:16;6.10;;;1.60;;
35959;SDS011;22043;50.970;7.192;2022-10-22T16:23:43;5.50;;;1.30;;
35959;SDS011;22043;50.970;7.192;2022-10-22T16:26:09;5.55;;;1.17;;
35959;SDS011;22043;50.970;7.192;2022-10-22T16:28:34;4.75;;;1.40;;
35959;SDS011;22043;50.970;7.192;2022-10-22T16:31:03;7.00;;;1.50;;
35959;SDS011;22043;50.970;7.192;2022-10-22T16:33:30;5.90;;;1.00;;
35959;SDS011;22043;50.970;7.192;2022-10-22T16:35:57;8.90;;;1.60;;
35959;SDS011;22043;50.970;7.192;2022-10-22T16:38:23;8.60;;;2.45;;
35959;SDS011;22043;50.970;7.192;2022-10-22T16:40:49;9.95;;;3.25;;
35959;SDS011;22043;50.970;7.192;2022-10-22T16:43:15;8.13;;;2.97;;
35959;SDS011;22043;50.970;7.192;2022-10-22T16:45:47;12.43;;;5.22;;
35959;SDS011;22043;50.970;7.192;2022-10-22T16:48:14;11.70;;;5.18;;
35959;SDS011;22043;50.970;7.192;2022-10-22T16:50:40;8.75;;;3.10;;
35959;SDS011;22043;50.970;7.192;2022-10-22T16:53:06;6.30;;;2.70;;
35959;SDS011;22043;50.970;7.192;2022-10-22T16:55:35;9.55;;;3.25;;
35959;SDS011;22043;50.970;7.192;2022-10-22T16:58:02;6.47;;;2.45;;